Mead, Colorado
Current Conditions -  °F | °C
As of 6:15 PM on Monday 26 Jan 2015 (Local Time) from KLMO Reporting Station
Clear Clear  
Wind Chill: 45°   Ceiling: Unl
Heat Index: 47°   Visibility: 10mi
Dew Point: 25°   Wind: 6mph
Humidity: 41%   Direction: 280°W
Pressure: 30.22"   Gusts: NA
Location:  40.23°N, 105°W
Report Text: KLMO 270115Z AUTO 28005KT 10SM CLR 09/M04 A3022 RMK AO2 T00861041
Loading
Personal Weather Stations






























Interactive Weather Map New forecast layout! Learn more

10-Day Weather Forecast

Advertisements
Track Severe Weather on mobile